Time;durP1;ratioP1;P1;durP2;ratioP2;P2;SDS_P1;SDS_P2;PMS_P1;PMS_P2;Temp;Humidity;BMP_temperature;BMP_pressure;BME280_temperature;BME280_humidity;BME280_pressure;Samples;Min_cycle;Max_cycle;Signal;HPM_P1;HPM_P2
2023/01/29 00:01:54;;;;;;;10.47;5.53;;;;;;;1.85;63.43;97087.72;4989552;28;20427;-68
2023/01/29 00:04:19;;;;;;;6.03;5.47;;;;;;;1.90;63.72;97078.25;4988208;28;20543;-68
2023/01/29 00:06:45;;;;;;;5.47;4.97;;;;;;;1.86;63.43;97071.31;4989569;28;20451;-68
2023/01/29 00:09:11;;;;;;;6.80;6.00;;;;;;;1.86;63.98;97085.13;4989555;28;20326;-68
2023/01/29 00:11:37;;;;;;;6.10;5.50;;;;;;;1.83;62.55;97077.38;4989275;28;20972;-68
2023/01/29 00:14:02;;;;;;;6.73;5.30;;;;;;;1.88;62.94;97095.47;4989639;28;20450;-68
2023/01/29 00:16:27;;;;;;;6.10;5.33;;;;;;;1.78;63.62;97104.09;4989424;28;20177;-68
2023/01/29 00:18:53;;;;;;;8.67;5.93;;;;;;;1.96;63.65;97105.84;4989371;28;20177;-68
2023/01/29 00:21:21;;;;;;;6.80;6.03;;;;;;;1.80;63.24;97121.34;4988971;28;20201;-68
2023/01/29 00:23:47;;;;;;;8.23;6.30;;;;;;;1.46;64.81;97118.69;4989324;28;20176;-68
2023/01/29 00:26:12;;;;;;;7.00;6.27;;;;;;;1.39;65.46;97118.63;4989386;28;20475;-68
2023/01/29 00:28:38;;;;;;;6.70;5.80;;;;;;;1.46;65.40;97115.22;4989392;28;20428;-68
2023/01/29 00:31:08;;;;;;;10.63;6.40;;;;;;;1.52;65.34;97102.31;4988996;28;20281;-68
2023/01/29 00:33:34;;;;;;;6.70;5.83;;;;;;;1.20;66.15;97104.78;4988683;28;20668;-68
2023/01/29 00:36:04;;;;;;;7.80;6.30;;;;;;;1.25;65.34;97109.13;4989104;28;20408;-68
2023/01/29 00:38:29;;;;;;;8.97;8.00;;;;;;;1.29;65.67;97111.72;4989277;28;20564;-68
2023/01/29 00:46:23;;;;;;;6.90;6.20;;;;;;;1.59;64.87;97117.00;4989267;28;21285;-68
2023/01/29 00:48:48;;;;;;;7.23;6.53;;;;;;;1.80;64.18;97116.19;4988899;28;20420;-68
2023/01/29 00:51:13;;;;;;;6.70;6.03;;;;;;;1.69;63.01;97107.53;4988692;28;20196;-68
2023/01/29 00:53:39;;;;;;;6.07;5.47;;;;;;;1.31;64.88;97105.69;4989120;28;20242;-68
2023/01/29 00:56:05;;;;;;;12.13;6.10;;;;;;;1.75;63.64;97104.06;4988976;28;20252;-68
2023/01/29 00:58:35;;;;;;;6.97;5.50;;;;;;;1.86;62.60;97112.72;4997284;28;20180;-68
2023/01/29 01:01:01;;;;;;;5.83;5.30;;;;;;;1.73;62.88;97095.47;5008223;28;20303;-67
2023/01/29 01:03:27;;;;;;;5.70;5.00;;;;;;;1.81;61.72;97098.94;5008065;28;20418;-68
2023/01/29 01:06:06;;;;;;;7.37;5.70;;;;;;;1.41;63.06;97107.44;5008128;28;20581;-68
2023/01/29 01:11:16;;;;;;;6.60;5.90;;;;;;;1.33;63.76;97105.72;5007924;28;20540;-68
2023/01/29 01:13:42;;;;;;;14.17;5.13;;;;;;;1.56;63.66;97111.81;5008123;28;20423;-68
2023/01/29 01:16:11;;;;;;;6.10;5.43;;;;;;;1.58;62.82;97111.81;5008243;28;20165;-68
2023/01/29 01:18:37;;;;;;;7.20;5.80;;;;;;;1.26;63.70;97110.84;5007884;28;20291;-68
2023/01/29 01:21:03;;;;;;;5.43;4.90;;;;;;;1.10;64.55;97109.03;5006363;28;20526;-68
2023/01/29 01:23:28;;;;;;;6.37;5.40;;;;;;;1.25;64.17;97113.41;5008044;28;20225;-68
2023/01/29 01:25:54;;;;;;;7.30;5.80;;;;;;;1.28;64.56;97108.28;5007875;28;20258;-68
2023/01/29 01:28:19;;;;;;;6.53;4.97;;;;;;;1.37;64.73;97112.59;4995412;28;20189;-68
2023/01/29 01:30:45;;;;;;;9.17;5.70;;;;;;;1.33;64.37;97110.88;4988172;28;20192;-68
2023/01/29 01:33:10;;;;;;;5.20;4.70;;;;;;;1.26;64.25;97115.16;4996114;28;20248;-68
2023/01/29 01:35:37;;;;;;;7.20;6.17;;;;;;;1.30;64.36;97103.97;4999973;28;20202;-68
2023/01/29 01:38:02;;;;;;;7.70;5.93;;;;;;;0.98;65.41;97104.69;5007989;28;20184;-68
2023/01/29 01:40:28;;;;;;;9.37;7.13;;;;;;;1.32;64.95;97098.78;4999178;28;20494;-68
2023/01/29 01:42:59;;;;;;;7.73;6.30;;;;;;;1.34;64.09;97087.59;5008087;28;20239;-68
2023/01/29 01:45:35;;;;;;;8.10;5.40;;;;;;;1.33;64.29;97096.22;5006949;28;20204;-68
2023/01/29 01:48:21;;;;;;;10.37;6.87;;;;;;;1.49;63.71;97099.72;5002143;28;20444;-68
2023/01/29 01:50:56;;;;;;;7.10;6.00;;;;;;;1.18;64.21;97101.31;5007099;28;20450;-68
2023/01/29 01:53:27;;;;;;;6.90;5.40;;;;;;;1.31;64.25;97105.69;5006216;28;20897;-68
2023/01/29 01:55:57;;;;;;;6.60;5.87;;;;;;;1.46;63.35;97104.88;5007822;28;20775;-68
2023/01/29 01:58:36;;;;;;;9.23;5.80;;;;;;;1.47;63.99;97099.72;4986763;28;20415;-68
2023/01/29 02:01:03;;;;;;;7.40;5.37;;;;;;;1.26;64.14;97097.06;4987486;28;20842;-68
2023/01/29 02:11:50;;;;;;;7.43;6.63;;;;;;;1.48;63.68;97101.44;5005856;28;20458;-68
2023/01/29 02:14:15;;;;;;;8.00;6.07;;;;;;;1.29;64.39;97096.19;5007047;28;20419;-68
2023/01/29 02:16:41;;;;;;;12.90;7.17;;;;;;;1.00;65.19;97099.53;4993140;28;21101;-68
2023/01/29 02:19:21;;;;;;;7.13;6.40;;;;;;;1.14;64.47;97097.00;4995575;28;20247;-68
2023/01/29 02:22:27;;;;;;;10.53;6.50;;;;;;;1.14;64.83;97094.44;4998593;28;20695;-68
2023/01/29 02:24:58;;;;;;;7.50;5.93;;;;;;;1.33;64.67;97085.88;5006508;28;20525;-68
2023/01/29 02:27:34;;;;;;;11.23;6.93;;;;;;;1.61;62.63;97081.66;5011032;28;20804;-68
2023/01/29 02:30:19;;;;;;;7.60;6.60;;;;;;;1.49;63.29;97089.38;5009819;28;20796;-67
2023/01/29 02:32:57;;;;;;;9.33;6.70;;;;;;;1.63;63.52;97089.38;5005172;28;20415;-68
2023/01/29 02:35:36;;;;;;;7.70;6.67;;;;;;;1.77;62.89;97089.41;5006407;28;20411;-67
2023/01/29 02:38:11;;;;;;;10.13;7.07;;;;;;;1.77;62.15;97094.59;5005195;28;20469;-67
2023/01/29 02:40:51;;;;;;;10.37;6.53;;;;;;;1.48;63.67;97090.22;5006098;28;20438;-67
2023/01/29 02:43:23;;;;;;;10.60;6.93;;;;;;;1.22;64.09;97096.16;5005350;28;20414;-67
2023/01/29 02:46:00;;;;;;;8.50;6.60;;;;;;;1.21;64.98;97093.59;5006312;28;20466;-67
2023/01/29 02:48:30;;;;;;;8.90;6.93;;;;;;;1.40;64.40;97090.22;5005045;28;20414;-67
2023/01/29 02:50:59;;;;;;;7.13;6.43;;;;;;;1.48;64.48;97100.56;5004777;28;20434;-68
2023/01/29 02:53:33;;;;;;;9.03;7.00;;;;;;;1.03;65.87;97094.38;5006382;28;20415;-68
2023/01/29 02:56:19;;;;;;;8.47;6.83;;;;;;;1.12;65.38;97094.41;5004934;28;20500;-67
2023/01/29 02:58:48;;;;;;;10.73;6.90;;;;;;;1.31;65.27;97094.50;5006217;28;20430;-67
2023/01/29 03:01:21;;;;;;;8.03;6.50;;;;;;;1.13;65.52;97092.69;5004705;28;20489;-67
2023/01/29 03:03:50;;;;;;;8.33;6.57;;;;;;;1.01;66.57;97094.34;5004892;28;20862;-67
2023/01/29 03:06:31;;;;;;;8.73;6.80;;;;;;;1.00;66.62;97097.81;5004774;28;20547;-67
2023/01/29 03:09:03;;;;;;;11.20;7.20;;;;;;;1.05;65.97;97098.69;5006336;28;20871;-67
2023/01/29 03:11:34;;;;;;;8.77;6.03;;;;;;;0.64;67.33;97103.63;5004639;28;20435;-67
2023/01/29 03:14:06;;;;;;;9.00;6.60;;;;;;;0.83;67.35;97097.72;5006395;28;20411;-67
2023/01/29 03:16:36;;;;;;;10.10;7.00;;;;;;;0.65;67.16;97100.19;5004831;28;20417;-67
2023/01/29 03:19:08;;;;;;;8.53;6.83;;;;;;;0.82;66.92;97102.88;5004775;28;20426;-68
2023/01/29 03:32:58;;;;;;;7.57;6.70;;;;;;;1.14;66.74;97104.75;5022937;28;20417;-67
2023/01/29 03:35:35;;;;;;;10.30;7.10;;;;;;;1.07;66.51;97109.03;5006279;28;20418;-67
2023/01/29 03:38:02;;;;;;;11.53;7.97;;;;;;;0.96;66.70;97106.38;5022829;28;20464;-67
2023/01/29 03:40:35;;;;;;;10.90;7.37;;;;;;;0.85;67.11;97108.03;5006052;28;20457;-67
2023/01/29 03:43:32;;;;;;;11.77;7.97;;;;;;;1.30;66.26;97105.66;5006304;28;20414;-67
2023/01/29 03:46:17;;;;;;;8.77;6.63;;;;;;;1.14;66.22;97109.94;5006322;28;20469;-67
2023/01/29 03:48:49;;;;;;;9.87;6.93;;;;;;;1.32;65.39;97099.66;5002837;28;20450;-67
2023/01/29 03:51:39;;;;;;;10.63;8.23;;;;;;;1.39;65.08;97096.22;5022819;28;20426;-68
2023/01/29 03:54:16;;;;;;;9.60;7.43;;;;;;;1.25;65.64;97100.47;5022836;28;20446;-68
2023/01/29 03:57:00;;;;;;;10.40;6.80;;;;;;;1.17;66.09;97099.59;5022940;28;20440;-68
2023/01/29 03:59:34;;;;;;;6.80;6.10;;;;;;;1.25;65.82;97098.78;5016836;28;20413;-67
2023/01/29 04:02:03;;;;;;;10.03;7.00;;;;;;;1.51;65.40;97097.13;4986281;28;20415;-67
2023/01/29 04:04:36;;;;;;;12.23;8.23;;;;;;;1.62;64.78;97104.06;4984790;28;20526;-67
2023/01/29 04:07:12;;;;;;;9.30;7.60;;;;;;;1.52;64.53;97101.47;4986331;28;20551;-67
2023/01/29 04:09:48;;;;;;;9.20;6.53;;;;;;;1.63;64.12;97099.75;4986009;28;20466;-67
2023/01/29 04:12:15;;;;;;;13.97;7.83;;;;;;;1.48;64.96;97095.41;4988265;28;20461;-67
2023/01/29 04:14:41;;;;;;;9.20;7.20;;;;;;;1.25;65.74;97092.72;4989643;28;20421;-67
2023/01/29 04:17:18;;;;;;;8.23;7.30;;;;;;;1.29;65.82;97093.63;4989394;28;20514;-68
2023/01/29 04:19:43;;;;;;;11.87;7.97;;;;;;;1.41;65.92;97098.81;4988107;28;20629;-67
2023/01/29 04:22:16;;;;;;;12.70;8.50;;;;;;;1.58;65.10;97101.47;4989461;28;20420;-67
2023/01/29 04:24:42;;;;;;;9.27;7.60;;;;;;;1.54;65.23;97104.91;4987933;28;20967;-68
2023/01/29 04:27:26;;;;;;;8.77;7.57;;;;;;;1.41;66.13;97099.69;4989483;28;20463;-68
2023/01/29 04:30:13;;;;;;;12.80;8.20;;;;;;;1.54;66.01;97102.34;4989341;28;20883;-68
2023/01/29 04:33:16;;;;;;;12.57;8.30;;;;;;;1.72;64.25;97098.91;4989120;28;20776;-68
2023/01/29 04:36:19;;;;;;;11.50;7.70;;;;;;;1.36;65.29;97109.16;4989261;28;20793;-68
2023/01/29 04:39:03;;;;;;;10.83;7.53;;;;;;;1.39;65.78;97101.38;4989264;28;20407;-69
2023/01/29 04:41:52;;;;;;;16.90;9.47;;;;;;;1.47;65.22;97104.03;4989087;28;20432;-68
2023/01/29 04:44:22;;;;;;;10.50;7.60;;;;;;;1.62;65.00;97103.19;4989044;28;20427;-68
2023/01/29 04:47:05;;;;;;;11.83;8.60;;;;;;;1.64;64.94;97101.47;4988715;28;20464;-68
2023/01/29 04:49:30;;;;;;;12.03;8.83;;;;;;;1.13;65.26;97108.19;4987409;28;20431;-68
2023/01/29 04:52:07;;;;;;;9.90;7.80;;;;;;;1.45;65.23;97108.31;4988794;28;20905;-67
2023/01/29 04:54:32;;;;;;;11.17;8.07;;;;;;;1.62;64.01;97113.53;4988943;28;20208;-67
2023/01/29 04:57:07;;;;;;;9.83;7.70;;;;;;;1.54;64.23;97105.78;4988862;28;20959;-67
2023/01/29 04:59:35;;;;;;;9.37;7.93;;;;;;;1.55;63.95;97099.72;5006439;28;20590;-67
2023/01/29 05:02:01;;;;;;;11.10;7.80;;;;;;;1.53;63.86;97103.16;5003859;28;20438;-67
2023/01/29 05:04:28;;;;;;;9.70;7.70;;;;;;;1.48;63.99;97106.59;5004463;28;20873;-67
2023/01/29 05:06:54;;;;;;;8.80;7.50;;;;;;;1.43;64.17;97107.47;4990049;28;20244;-67
2023/01/29 05:09:20;;;;;;;10.43;8.30;;;;;;;1.04;66.28;97106.44;5007710;28;20877;-67
2023/01/29 05:11:46;;;;;;;11.03;8.50;;;;;;;1.41;65.33;97107.44;5006633;28;20178;-67
2023/01/29 05:14:13;;;;;;;9.50;8.00;;;;;;;1.16;65.75;97118.53;5006577;28;20172;-67
2023/01/29 05:16:45;;;;;;;14.80;8.63;;;;;;;1.41;65.01;97120.38;5006523;28;20423;-67
2023/01/29 05:19:12;;;;;;;9.30;8.13;;;;;;;1.00;66.71;97123.66;5006469;28;20415;-67
2023/01/29 05:21:39;;;;;;;10.70;8.50;;;;;;;0.98;66.47;97124.50;5007628;28;20521;-67
2023/01/29 05:24:22;;;;;;;8.30;7.43;;;;;;;1.09;66.27;97119.38;5006224;28;20473;-67
2023/01/29 05:29:32;;;;;;;9.83;8.07;;;;;;;1.09;65.97;97121.94;5006511;28;21231;-67
2023/01/29 05:31:58;;;;;;;11.40;8.60;;;;;;;1.43;64.95;97125.56;5007441;28;20423;-67
2023/01/29 05:34:23;;;;;;;9.17;8.20;;;;;;;1.27;65.87;97117.72;5007829;28;20176;-67
2023/01/29 05:36:49;;;;;;;11.97;8.60;;;;;;;1.36;65.26;97123.81;5007472;28;20168;-67
2023/01/29 05:39:14;;;;;;;10.27;7.70;;;;;;;0.96;66.75;97121.91;5007425;28;20211;-67
2023/01/29 05:41:40;;;;;;;10.13;8.23;;;;;;;0.92;66.90;97109.84;5007372;28;20196;-67
2023/01/29 05:44:05;;;;;;;11.20;8.60;;;;;;;0.90;66.80;97111.53;5007349;28;20254;-68
2023/01/29 05:46:31;;;;;;;9.23;7.73;;;;;;;1.19;67.01;97114.25;5007219;28;20219;-68
2023/01/29 05:48:56;;;;;;;9.00;7.97;;;;;;;1.01;66.80;97109.84;5007261;28;20174;-67
2023/01/29 05:51:22;;;;;;;9.90;8.20;;;;;;;1.27;66.07;97106.53;5006981;28;20197;-68
2023/01/29 05:53:47;;;;;;;10.30;8.93;;;;;;;1.50;65.09;97105.75;5007022;28;20183;-68
2023/01/29 05:56:12;;;;;;;12.67;8.83;;;;;;;1.67;64.64;97102.34;5007402;28;20168;-68
2023/01/29 05:58:38;;;;;;;9.87;8.80;;;;;;;1.53;64.45;97101.44;4996468;28;20181;-68
2023/01/29 06:01:11;;;;;;;11.47;8.87;;;;;;;1.67;64.59;97107.50;4987275;28;20203;-68
2023/01/29 06:03:37;;;;;;;11.43;9.70;;;;;;;1.60;64.42;97110.94;4987523;28;20169;-68
2023/01/29 06:06:02;;;;;;;10.57;8.27;;;;;;;1.54;65.01;97110.09;4987399;28;20530;-67
2023/01/29 06:08:28;;;;;;;9.63;8.00;;;;;;;1.57;64.95;97113.53;4987469;28;20181;-67
2023/01/29 06:10:53;;;;;;;9.30;8.40;;;;;;;1.74;64.51;97110.97;4987203;28;20209;-68
2023/01/29 06:13:18;;;;;;;16.60;9.93;;;;;;;1.72;63.91;97115.28;4987531;28;20227;-67
2023/01/29 06:15:44;;;;;;;12.13;9.17;;;;;;;1.71;64.80;97117.88;4987424;28;20169;-68
2023/01/29 06:18:09;;;;;;;14.33;9.20;;;;;;;1.61;64.36;97106.66;4987310;28;20514;-68
2023/01/29 06:20:36;;;;;;;13.37;9.93;;;;;;;1.62;63.91;97104.06;4986938;28;20280;-68
2023/01/29 06:23:01;;;;;;;10.73;8.50;;;;;;;1.73;64.38;97101.50;4987540;28;20177;-68
2023/01/29 06:25:27;;;;;;;10.60;8.57;;;;;;;1.66;63.62;97110.13;4987504;28;20460;-68
2023/01/29 06:27:52;;;;;;;11.47;8.83;;;;;;;1.73;63.73;97100.66;4987447;28;20173;-68
2023/01/29 06:30:17;;;;;;;12.73;9.07;;;;;;;1.78;64.19;97102.38;4987157;28;20255;-68
2023/01/29 06:32:43;;;;;;;10.27;8.50;;;;;;;1.54;64.20;97095.44;4987019;28;20177;-68
2023/01/29 06:35:09;;;;;;;12.30;9.50;;;;;;;1.32;65.72;97089.31;4987140;28;20177;-68
2023/01/29 06:37:35;;;;;;;10.47;8.10;;;;;;;0.78;67.30;97101.13;4986918;28;20177;-68
2023/01/29 06:40:01;;;;;;;11.27;9.30;;;;;;;0.67;67.49;97085.56;4986874;28;20498;-68
2023/01/29 06:42:26;;;;;;;10.20;8.97;;;;;;;0.56;68.06;97082.91;4985582;28;20264;-68
2023/01/29 06:44:55;;;;;;;11.20;8.47;;;;;;;0.52;68.39;97086.34;4987578;28;20680;-67
2023/01/29 06:47:21;;;;;;;11.57;8.27;;;;;;;0.81;66.73;97085.66;4987480;28;20857;-68
2023/01/29 06:49:47;;;;;;;11.33;8.33;;;;;;;0.83;66.95;97087.38;4986786;28;20526;-68
2023/01/29 06:52:12;;;;;;;60.57;12.00;;;;;;;1.38;65.78;97083.31;4987332;28;20412;-68
2023/01/29 06:54:38;;;;;;;15.43;9.00;;;;;;;1.39;64.67;97092.78;4985099;28;20279;-68
2023/01/29 06:57:03;;;;;;;11.60;8.23;;;;;;;1.20;64.56;97084.94;4994512;28;20176;-68
2023/01/29 06:59:29;;;;;;;10.70;8.50;;;;;;;1.00;66.29;97087.47;5005775;28;20176;-68
2023/01/29 07:01:54;;;;;;;9.30;8.40;;;;;;;1.08;65.99;97090.06;4993396;28;20195;-68
2023/01/29 07:04:19;;;;;;;16.50;9.40;;;;;;;1.24;64.86;97088.44;4998368;28;20275;-68
2023/01/29 07:06:45;;;;;;;12.27;7.13;;;;;;;1.33;63.61;97098.81;4999738;28;20244;-68
2023/01/29 07:09:12;;;;;;;9.73;7.53;;;;;;;1.33;63.55;97106.56;5004211;28;20176;-69
2023/01/29 07:11:38;;;;;;;10.90;8.63;;;;;;;1.36;64.45;97114.31;5001221;28;20739;-69
2023/01/29 07:14:03;;;;;;;9.50;7.57;;;;;;;1.33;64.15;97108.28;4986266;28;20420;-69
2023/01/29 07:16:29;;;;;;;10.67;6.93;;;;;;;1.51;62.37;97102.31;4986342;28;20231;-69
2023/01/29 07:18:54;;;;;;;6.43;5.60;;;;;;;1.15;63.91;97103.91;4996865;28;20180;-69
2023/01/29 07:21:20;;;;;;;9.30;7.00;;;;;;;1.33;63.51;97110.88;5001011;28;20596;-69
2023/01/29 07:23:45;;;;;;;7.97;6.47;;;;;;;1.15;64.41;97127.16;4986291;28;20247;-68
2023/01/29 07:26:11;;;;;;;12.77;9.10;;;;;;;1.25;63.84;97116.00;4989128;28;20207;-68
2023/01/29 07:28:37;;;;;;;9.50;7.87;;;;;;;0.80;66.05;97125.25;5005610;28;20621;-68
2023/01/29 07:31:03;;;;;;;9.57;7.33;;;;;;;0.90;65.18;97116.72;5002628;28;20200;-68
2023/01/29 07:33:29;;;;;;;7.53;5.73;;;;;;;1.11;63.04;97097.88;5003552;28;20434;-69
2023/01/29 07:35:55;;;;;;;6.00;5.40;;;;;;;0.56;64.19;97108.72;5001534;28;20415;-67
2023/01/29 07:38:20;;;;;;;6.17;5.37;;;;;;;0.71;64.29;97104.50;4991518;28;20240;-67
2023/01/29 07:40:46;;;;;;;7.67;5.87;;;;;;;0.80;64.20;97109.75;4996586;28;20604;-68
2023/01/29 07:43:11;;;;;;;8.60;6.13;;;;;;;0.89;63.92;97121.84;4995462;28;20184;-68
2023/01/29 07:45:38;;;;;;;11.07;6.90;;;;;;;0.86;64.19;97122.72;4989052;28;20204;-68
2023/01/29 07:48:05;;;;;;;9.20;7.20;;;;;;;1.18;62.87;97116.81;4995376;28;20179;-67
2023/01/29 07:50:31;;;;;;;9.20;7.37;;;;;;;0.90;64.53;97128.75;5004650;28;20462;-67
2023/01/29 07:52:57;;;;;;;8.57;6.70;;;;;;;1.00;64.09;97128.81;4991768;28;20535;-68
2023/01/29 07:55:23;;;;;;;7.03;5.53;;;;;;;1.18;62.84;97122.88;5001924;28;20530;-68
2023/01/29 07:57:59;;;;;;;7.83;6.83;;;;;;;1.05;63.54;97139.19;5005310;28;20187;-68
2023/01/29 08:00:24;;;;;;;8.30;6.70;;;;;;;0.94;63.91;97128.75;4995428;28;20246;-68
2023/01/29 08:02:50;;;;;;;7.30;6.60;;;;;;;1.00;63.67;97133.97;4985783;28;20427;-68
2023/01/29 08:05:16;;;;;;;10.20;7.73;;;;;;;1.11;63.25;97128.00;4985782;28;20247;-68
2023/01/29 08:07:41;;;;;;;9.33;7.87;;;;;;;0.94;63.78;97133.06;4985734;28;20661;-68
2023/01/29 08:10:07;;;;;;;10.47;7.23;;;;;;;1.17;64.07;97135.78;4984117;28;20200;-68
2023/01/29 08:12:32;;;;;;;9.57;7.07;;;;;;;0.98;64.26;97140.00;4993844;28;20184;-67
2023/01/29 08:14:58;;;;;;;19.77;9.37;;;;;;;0.97;64.46;97131.38;5005070;28;20426;-67
2023/01/29 08:17:23;;;;;;;13.53;8.07;;;;;;;1.00;63.97;97133.97;5005514;28;20327;-67
2023/01/29 08:19:49;;;;;;;16.13;8.57;;;;;;;1.33;63.30;97135.00;5005166;28;20841;-68
2023/01/29 08:22:15;;;;;;;11.10;7.17;;;;;;;1.35;63.30;97140.19;5005236;28;20181;-67
2023/01/29 08:24:41;;;;;;;11.90;7.40;;;;;;;1.40;62.76;97151.41;5004791;28;20259;-68
2023/01/29 08:27:06;;;;;;;12.60;7.37;;;;;;;1.53;61.90;97144.56;5004808;28;20609;-68
2023/01/29 08:29:32;;;;;;;7.77;6.97;;;;;;;1.56;62.56;97149.72;5004657;28;20429;-68
2023/01/29 08:31:57;;;;;;;10.37;8.50;;;;;;;1.56;62.38;97155.78;5004559;28;20183;-68
2023/01/29 08:34:23;;;;;;;9.37;8.33;;;;;;;1.73;61.75;97147.22;5004282;28;20172;-68
2023/01/29 08:36:48;;;;;;;10.40;7.80;;;;;;;1.73;62.34;97149.81;4995979;28;20169;-68
2023/01/29 08:39:13;;;;;;;29.97;10.60;;;;;;;1.89;62.14;97144.69;4987531;28;20184;-67
2023/01/29 08:41:39;;;;;;;27.33;8.97;;;;;;;2.07;61.35;97153.31;4996203;28;20572;-70
2023/01/29 08:44:04;;;;;;;14.17;8.13;;;;;;;2.12;60.79;97151.59;5004495;28;20188;-67
2023/01/29 08:46:30;;;;;;;13.57;8.93;;;;;;;2.10;60.62;97149.03;5004361;28;20203;-68
2023/01/29 08:48:56;;;;;;;29.23;9.73;;;;;;;2.11;60.99;97155.06;5000829;28;20183;-68
2023/01/29 08:51:21;;;;;;;14.03;8.57;;;;;;;2.14;60.55;97159.38;4994545;28;20206;-68
2023/01/29 08:53:47;;;;;;;14.37;7.50;;;;;;;2.09;59.99;97151.59;4999283;28;20649;-67
2023/01/29 08:56:12;;;;;;;12.40;8.43;;;;;;;2.04;60.53;97143.81;5004452;28;20176;-68
2023/01/29 08:58:37;;;;;;;9.80;7.70;;;;;;;2.18;59.78;97143.84;4990686;28;20180;-68
2023/01/29 09:01:08;;;;;;;20.50;8.53;;;;;;;2.13;59.94;97143.00;4988534;28;20244;-68
2023/01/29 09:03:33;;;;;;;11.73;9.37;;;;;;;2.09;59.60;97143.84;4994220;28;20177;-68
2023/01/29 09:05:59;;;;;;;10.57;8.53;;;;;;;2.00;60.29;97149.84;5000047;28;21008;-68
2023/01/29 09:08:24;;;;;;;10.43;7.87;;;;;;;2.15;59.73;97149.03;4992606;28;20191;-69
2023/01/29 09:10:50;;;;;;;9.67;8.07;;;;;;;2.06;60.18;97156.78;5004486;28;20208;-68
2023/01/29 09:13:15;;;;;;;10.10;8.63;;;;;;;1.83;60.82;97157.59;5006889;28;20175;-68
2023/01/29 09:15:40;;;;;;;12.97;8.53;;;;;;;1.76;60.30;97165.34;5005521;28;20176;-68
2023/01/29 09:18:06;;;;;;;10.00;8.10;;;;;;;1.43;61.23;97166.94;5006401;28;20187;-68
2023/01/29 09:20:31;;;;;;;10.70;8.50;;;;;;;1.30;62.30;97172.91;5002188;28;20246;-68
2023/01/29 09:22:58;;;;;;;10.80;7.80;;;;;;;1.64;61.79;97176.50;4997139;28;20238;-69
2023/01/29 09:25:24;;;;;;;9.50;8.37;;;;;;;1.73;61.26;97173.09;5004467;28;20299;-68
2023/01/29 09:27:49;;;;;;;10.50;7.63;;;;;;;1.45;61.49;97173.84;5006764;28;20879;-68
2023/01/29 09:30:15;;;;;;;12.53;9.20;;;;;;;1.04;63.29;97182.25;4998340;28;20550;-68
2023/01/29 09:32:41;;;;;;;9.43;8.30;;;;;;;1.34;62.30;97178.09;4993272;28;20188;-69
2023/01/29 09:35:06;;;;;;;8.53;7.63;;;;;;;1.27;62.68;97178.91;4992430;28;21179;-69
2023/01/29 09:37:32;;;;;;;11.43;9.10;;;;;;;1.07;63.58;97180.56;4997399;28;20177;-68
2023/01/29 09:39:57;;;;;;;13.27;9.57;;;;;;;1.17;63.41;97184.91;4995839;28;20711;-68
2023/01/29 09:42:41;;;;;;;11.40;9.50;;;;;;;1.24;63.45;97184.09;4995534;28;20188;-68
2023/01/29 09:45:11;;;;;;;11.37;8.00;;;;;;;1.21;63.10;97197.88;4993618;28;20195;-69
2023/01/29 09:47:37;;;;;;;12.60;9.23;;;;;;;1.44;63.24;97194.50;5002933;28;20503;-68
2023/01/29 09:50:06;;;;;;;9.90;8.17;;;;;;;1.59;61.86;97194.59;4998059;28;20557;-68
2023/01/29 09:52:35;;;;;;;9.30;7.90;;;;;;;1.64;61.91;97202.38;5002672;28;20188;-68
2023/01/29 09:55:03;;;;;;;12.70;7.70;;;;;;;1.32;61.96;97205.66;4989850;28;21029;-68
2023/01/29 09:57:37;;;;;;;11.17;8.20;;;;;;;0.97;62.74;97208.03;4990497;28;20473;-68
2023/01/29 10:00:03;;;;;;;12.07;7.83;;;;;;;0.81;63.93;97195.03;4989432;28;20571;-67
2023/01/29 10:02:54;;;;;;;9.43;7.30;;;;;;;1.32;62.91;97200.50;4995678;28;20534;-67
2023/01/29 10:05:37;;;;;;;15.73;9.47;;;;;;;1.63;61.38;97190.28;5002092;28;20181;-68
2023/01/29 10:08:21;;;;;;;17.37;9.83;;;;;;;1.55;61.06;97184.22;4986513;28;20514;-68
2023/01/29 10:10:50;;;;;;;9.17;7.93;;;;;;;1.45;61.40;97171.25;4988035;28;20497;-68
2023/01/29 10:14:06;;;;;;;9.50;8.30;;;;;;;1.24;62.11;97160.81;4999669;28;20482;-67
2023/01/29 10:16:32;;;;;;;9.57;7.47;;;;;;;1.67;61.57;97161.00;4988345;28;20435;-68
2023/01/29 10:19:23;;;;;;;9.40;7.77;;;;;;;1.35;61.87;97151.41;5004635;28;20445;-68
2023/01/29 10:21:56;;;;;;;10.50;8.90;;;;;;;1.85;61.34;97157.59;4983493;28;20204;-68
2023/01/29 10:24:37;;;;;;;13.20;7.80;;;;;;;2.01;60.33;97154.19;4990619;28;20446;-68
2023/01/29 10:27:14;;;;;;;16.93;9.63;;;;;;;2.02;59.92;97155.03;4997925;28;20470;-68
2023/01/29 10:29:41;;;;;;;12.00;8.90;;;;;;;2.08;59.56;97155.06;4992094;28;20445;-68
2023/01/29 10:32:19;;;;;;;11.33;9.03;;;;;;;2.06;59.87;97149.03;4991471;28;21079;-68
2023/01/29 10:34:48;;;;;;;11.33;8.03;;;;;;;1.56;61.54;97147.16;4990026;28;20447;-68
2023/01/29 10:37:23;;;;;;;19.73;8.93;;;;;;;1.73;61.26;97140.31;4998822;28;20474;-67
2023/01/29 10:39:49;;;;;;;53.07;13.33;;;;;;;1.85;60.76;97129.13;4997313;28;20503;-68
2023/01/29 10:42:23;;;;;;;14.30;9.03;;;;;;;1.77;60.60;97129.13;4995867;28;20443;-68
2023/01/29 10:45:25;;;;;;;12.53;9.10;;;;;;;1.75;61.01;97133.44;4991692;28;21281;-67
2023/01/29 10:48:03;;;;;;;10.60;9.50;;;;;;;1.77;61.77;97126.53;4992990;28;20438;-68
2023/01/29 10:50:40;;;;;;;16.03;10.27;;;;;;;2.02;61.09;97126.56;4983445;28;20465;-67
2023/01/29 10:53:27;;;;;;;12.77;9.60;;;;;;;1.78;61.35;97123.06;4990907;28;20439;-69
2023/01/29 10:56:01;;;;;;;10.83;9.40;;;;;;;2.11;59.97;97124.84;4995414;28;20438;-66
2023/01/29 10:58:38;;;;;;;13.60;9.80;;;;;;;2.30;59.31;97117.09;4991619;28;20438;-68
2023/01/29 11:01:03;;;;;;;16.03;10.50;;;;;;;2.31;59.16;97124.84;4992944;28;20612;-68
2023/01/29 11:03:30;;;;;;;24.77;11.00;;;;;;;2.40;59.21;97112.78;4991259;28;20951;-68
2023/01/29 11:06:06;;;;;;;33.80;10.97;;;;;;;2.56;58.49;97119.69;4988330;28;20270;-70
2023/01/29 11:08:55;;;;;;;32.37;13.23;;;;;;;2.56;57.48;97119.69;4991589;28;20462;-70
2023/01/29 11:11:43;;;;;;;24.47;10.30;;;;;;;2.68;57.74;97114.47;4998283;28;20458;-70
2023/01/29 11:14:13;;;;;;;19.20;11.20;;;;;;;2.57;57.39;97102.41;4992435;28;20448;-69
2023/01/29 11:16:40;;;;;;;14.43;10.50;;;;;;;2.57;57.88;97108.44;4986687;28;20525;-68
2023/01/29 11:19:06;;;;;;;11.33;10.13;;;;;;;2.48;57.54;97116.22;4997631;28;21003;-68
2023/01/29 11:21:31;;;;;;;12.87;10.20;;;;;;;2.49;57.46;97118.81;4996937;28;20474;-71
2023/01/29 11:24:15;;;;;;;16.10;10.13;;;;;;;2.35;57.87;97122.28;4997592;28;20189;-68
2023/01/29 11:26:41;;;;;;;10.73;9.70;;;;;;;2.12;58.55;97120.53;5003772;28;20208;-69
2023/01/29 11:29:28;;;;;;;12.10;8.83;;;;;;;2.36;57.97;97113.63;4996902;28;20452;-69
2023/01/29 11:31:55;;;;;;;15.23;9.90;;;;;;;2.38;58.40;97111.91;4998634;28;20625;-69
2023/01/29 11:34:24;;;;;;;14.23;10.37;;;;;;;2.44;57.92;97104.16;4996777;28;20465;-68
2023/01/29 11:36:59;;;;;;;10.60;9.50;;;;;;;2.27;58.45;97099.84;4999558;28;21226;-69
2023/01/29 11:39:26;;;;;;;13.43;10.43;;;;;;;2.47;57.07;97089.44;4997991;28;20534;-69
2023/01/29 11:41:54;;;;;;;11.80;9.20;;;;;;;2.68;56.89;97100.66;4998045;28;20576;-69
2023/01/29 11:44:26;;;;;;;15.30;9.87;;;;;;;2.82;56.04;97098.06;4993321;28;20443;-70
2023/01/29 11:46:52;;;;;;;19.50;9.20;;;;;;;2.77;56.34;97089.44;4992974;28;21253;-69
2023/01/29 11:49:23;;;;;;;12.20;10.27;;;;;;;2.62;56.56;97093.78;5000861;28;20442;-69
2023/01/29 11:51:52;;;;;;;44.00;13.00;;;;;;;2.49;56.12;97089.47;5001559;28;20176;-69
2023/01/29 11:54:19;;;;;;;39.50;11.97;;;;;;;3.43;79.47;97092.66;5000238;28;20446;-68
2023/01/29 11:56:45;;;;;;;16.63;9.43;;;;;;;3.43;56.50;97081.41;4988241;28;20527;-68
2023/01/29 11:59:20;;;;;;;12.30;8.93;;;;;;;3.15;55.51;97082.38;4988833;28;20467;-69
2023/01/29 12:01:46;;;;;;;18.93;10.03;;;;;;;3.10;55.69;97078.09;4990834;28;20931;-69
2023/01/29 12:04:22;;;;;;;12.60;9.70;;;;;;;3.12;55.08;97079.81;5000196;28;20435;-69
2023/01/29 12:06:51;;;;;;;16.40;9.87;;;;;;;3.20;55.24;97065.94;5005206;28;20295;-68
2023/01/29 12:09:23;;;;;;;14.50;10.47;;;;;;;3.03;55.02;97059.09;5004345;28;20450;-68
2023/01/29 12:11:48;;;;;;;27.13;9.70;;;;;;;2.62;56.56;97065.28;4996985;28;20526;-69
2023/01/29 12:14:28;;;;;;;14.70;9.03;;;;;;;2.49;57.08;97061.81;5000958;28;20958;-69
2023/01/29 12:17:03;;;;;;;15.10;9.83;;;;;;;2.32;57.41;97054.06;4995544;28;20197;-70
2023/01/29 12:19:59;;;;;;;28.37;8.73;;;;;;;2.45;57.10;97043.69;4986916;28;20436;-69
2023/01/29 12:22:49;;;;;;;32.13;11.67;;;;;;;2.75;56.82;97029.81;4987992;28;20463;-68